Starlake, Wisconsin
Current Conditions -  °F | °C
As of 2:10 PM on Wednesday 28 Jan 2015 (Local Time) from KEGV Reporting Station
Clear Clear  
Wind Chill: 21°   Ceiling: Unl
Heat Index: 29°   Visibility: 10mi
Dew Point: 19°   Wind: 9mph
Humidity: 67%   Direction: 150°SSE
Pressure: 29.93"   Gusts: NA
Location:  46.0405°N, 89.4656°W
Report Text: KEGV 282010Z AUTO 15008KT 130V200 10SM CLR M02/M07 A2993 RMK AO2 T10161070
Loading
Personal Weather Stations






























Interactive Weather Map New forecast layout! Learn more

10-Day Weather Forecast

Advertisements
Track Severe Weather on mobile